createdAt,value
2023-03-29T00:00:35.984Z,3.00
2023-03-29T00:03:04.958Z,2.00
2023-03-29T00:05:35.220Z,2.00
2023-03-29T00:08:04.368Z,3.00
2023-03-29T00:10:35.057Z,3.25
2023-03-29T00:13:03.297Z,3.50
2023-03-29T00:15:30.902Z,3.50
2023-03-29T00:17:59.410Z,2.25
2023-03-29T00:20:28.926Z,2.50
2023-03-29T00:22:56.409Z,2.75
2023-03-29T00:25:23.967Z,4.75
2023-03-29T00:27:51.365Z,3.00
2023-03-29T00:30:19.048Z,3.00
2023-03-29T00:32:46.964Z,2.00
2023-03-29T00:35:16.710Z,3.50
2023-03-29T00:37:47.260Z,2.00
2023-03-29T00:40:15.626Z,3.50
2023-03-29T00:42:46.628Z,2.50
2023-03-29T00:45:19.675Z,2.00
2023-03-29T00:48:03.009Z,3.00
2023-03-29T00:50:39.999Z,2.50
2023-03-29T00:53:15.306Z,3.00
2023-03-29T00:55:55.205Z,3.00
2023-03-29T00:58:32.024Z,3.25
2023-03-29T01:01:08.874Z,4.00
2023-03-29T01:03:54.586Z,3.00
2023-03-29T01:06:29.162Z,3.00
2023-03-29T01:09:01.355Z,2.00
2023-03-29T01:11:35.046Z,7.00
2023-03-29T01:14:10.342Z,2.75
2023-03-29T01:16:39.544Z,4.50
2023-03-29T01:19:10.511Z,5.50
2023-03-29T01:21:58.542Z,4.00
2023-03-29T01:24:29.290Z,6.50
2023-03-29T01:27:23.583Z,5.50
2023-03-29T01:30:04.311Z,5.00
2023-03-29T01:32:44.668Z,6.00
2023-03-29T01:35:22.085Z,3.75
2023-03-29T01:37:59.125Z,2.00
2023-03-29T01:40:31.189Z,3.00
2023-03-29T01:43:21.985Z,3.00
2023-03-29T01:46:01.365Z,2.00
2023-03-29T01:48:36.533Z,4.50
2023-03-29T01:51:13.035Z,3.00
2023-03-29T01:53:49.960Z,2.75
2023-03-29T01:56:21.826Z,7.00
2023-03-29T01:58:55.065Z,4.75
2023-03-29T02:01:28.301Z,6.25
2023-03-29T02:04:03.125Z,11.25
2023-03-29T02:06:33.071Z,6.50
2023-03-29T02:09:01.646Z,2.75
2023-03-29T02:11:29.525Z,3.00
2023-03-29T02:14:00.138Z,3.00
2023-03-29T02:16:28.007Z,4.00
2023-03-29T02:18:57.769Z,2.50
2023-03-29T02:21:56.012Z,2.00
2023-03-29T02:24:25.240Z,2.00
2023-03-29T02:26:52.849Z,1.00
2023-03-29T02:29:20.364Z,1.75
2023-03-29T02:31:55.755Z,1.50
2023-03-29T02:34:30.236Z,0.75
2023-03-29T02:37:06.931Z,1.50
2023-03-29T02:39:37.262Z,3.00
2023-03-29T02:42:07.311Z,1.00
2023-03-29T02:44:40.882Z,2.00
2023-03-29T02:47:24.522Z,1.25
2023-03-29T02:49:52.449Z,2.00
2023-03-29T02:52:27.545Z,2.25
2023-03-29T02:54:56.078Z,1.00
2023-03-29T02:57:28.752Z,1.00
2023-03-29T02:59:58.966Z,1.00
2023-03-29T03:02:27.880Z,2.00
2023-03-29T03:04:59.539Z,1.00
2023-03-29T03:07:28.756Z,2.00
2023-03-29T03:09:57.082Z,3.00
2023-03-29T03:12:26.371Z,2.00
2023-03-29T03:14:54.748Z,2.75
2023-03-29T03:17:23.204Z,1.50
2023-03-29T03:19:51.003Z,2.00
2023-03-29T03:22:18.477Z,3.00
2023-03-29T03:24:46.242Z,3.00
2023-03-29T03:27:14.264Z,3.50
2023-03-29T03:29:41.666Z,4.25
2023-03-29T03:32:12.449Z,4.75
2023-03-29T03:34:41.070Z,6.00
2023-03-29T03:37:08.542Z,5.75
2023-03-29T03:39:37.968Z,4.50
2023-03-29T03:42:08.155Z,4.75
2023-03-29T03:44:38.055Z,6.00
2023-03-29T03:47:06.830Z,6.50
2023-03-29T03:49:34.788Z,4.25
2023-03-29T03:52:02.486Z,7.00
2023-03-29T03:54:30.130Z,5.50
2023-03-29T03:56:59.092Z,3.50
2023-03-29T03:59:26.764Z,7.00
2023-03-29T04:01:59.986Z,7.25
2023-03-29T04:04:28.935Z,6.50
2023-03-29T04:07:02.702Z,9.00
2023-03-29T04:09:31.344Z,5.75
2023-03-29T04:12:01.781Z,7.00
2023-03-29T04:14:31.742Z,5.00
2023-03-29T04:16:59.086Z,3.00
2023-03-29T04:19:27.435Z,6.25
2023-03-29T04:21:54.815Z,5.25
2023-03-29T04:24:23.232Z,2.50
2023-03-29T04:26:50.735Z,7.00
2023-03-29T04:29:21.024Z,3.00
2023-03-29T04:31:48.634Z,5.25
2023-03-29T04:34:16.097Z,2.50
2023-03-29T04:36:45.046Z,3.00
2023-03-29T04:39:12.426Z,4.00
2023-03-29T04:41:42.990Z,4.00
2023-03-29T04:44:10.743Z,4.00
2023-03-29T04:46:40.408Z,1.75
2023-03-29T04:49:09.017Z,5.00
2023-03-29T04:51:37.309Z,4.25
2023-03-29T04:54:06.650Z,2.00
2023-03-29T04:56:34.383Z,5.00
2023-03-29T04:59:01.747Z,6.25
2023-03-29T05:01:29.788Z,4.75
2023-03-29T05:03:57.279Z,5.25
2023-03-29T05:06:24.685Z,4.00
2023-03-29T05:08:53.532Z,6.25
2023-03-29T05:11:24.478Z,5.75
2023-03-29T05:13:51.858Z,6.00
2023-03-29T05:16:19.423Z,6.50
2023-03-29T05:18:46.822Z,7.50
2023-03-29T05:21:22.089Z,5.75
2023-03-29T05:23:50.056Z,7.00
2023-03-29T05:26:17.744Z,6.75
2023-03-29T05:28:45.217Z,5.75
2023-03-29T05:31:13.659Z,5.75
2023-03-29T05:33:43.466Z,6.75
2023-03-29T05:40:56.589Z,6.25
2023-03-29T05:43:26.233Z,6.00
2023-03-29T05:45:54.747Z,5.75
2023-03-29T05:48:23.966Z,9.50
2023-03-29T05:50:53.604Z,6.75
2023-03-29T05:53:23.723Z,6.00
2023-03-29T05:55:51.714Z,5.00
2023-03-29T05:58:21.792Z,6.00
2023-03-29T06:00:51.478Z,6.00
2023-03-29T06:03:23.805Z,6.25
2023-03-29T06:06:00.644Z,5.00
2023-03-29T06:08:29.187Z,6.00
2023-03-29T06:11:04.577Z,6.75
2023-03-29T06:13:35.725Z,5.00
2023-03-29T06:16:06.607Z,5.25
2023-03-29T06:18:34.994Z,5.25
2023-03-29T06:21:05.406Z,3.00
2023-03-29T06:23:34.884Z,6.25
2023-03-29T06:26:06.597Z,1.00
2023-03-29T06:28:34.344Z,5.25
2023-03-29T06:31:03.329Z,4.00
2023-03-29T13:47:58.818Z,12.00
2023-03-29T13:50:40.441Z,13.50
2023-03-29T13:53:23.281Z,11.25
2023-03-29T13:55:55.095Z,10.75
2023-03-29T13:58:27.491Z,12.75
2023-03-29T14:01:02.802Z,12.00
2023-03-29T14:03:41.277Z,12.25
2023-03-29T14:06:11.467Z,8.50
2023-03-29T14:08:45.449Z,11.25
2023-03-29T14:11:43.644Z,12.00
2023-03-29T14:14:12.279Z,14.75
2023-03-29T14:16:41.839Z,10.00
2023-03-29T14:19:21.672Z,10.50
2023-03-29T14:21:52.214Z,12.25
2023-03-29T14:24:27.199Z,10.75
2023-03-29T14:26:55.073Z,11.00
2023-03-29T14:29:31.503Z,10.00
2023-03-29T14:32:10.413Z,10.25
2023-03-29T14:34:38.610Z,11.25
2023-03-29T14:37:09.098Z,10.00
2023-03-29T14:39:37.500Z,12.00
2023-03-29T14:42:14.474Z,10.75
2023-03-29T14:44:43.836Z,10.75
2023-03-29T14:47:26.980Z,8.00
2023-03-29T14:49:58.916Z,3.00
2023-03-29T14:52:31.266Z,11.00
2023-03-29T14:55:02.076Z,12.75
2023-03-29T14:57:35.679Z,8.50
2023-03-29T15:00:23.146Z,11.75
2023-03-29T15:03:02.402Z,10.25
2023-03-29T15:05:39.920Z,10.00
2023-03-29T15:08:13.760Z,10.25
2023-03-29T15:10:45.258Z,12.75
2023-03-29T15:13:20.033Z,12.50
2023-03-29T15:18:35.073Z,13.00
2023-03-29T15:21:03.208Z,11.50
2023-03-29T15:23:46.862Z,11.00
2023-03-29T15:26:21.587Z,13.50
2023-03-29T15:29:03.145Z,9.00
2023-03-29T15:31:35.787Z,10.75
2023-03-29T15:34:11.211Z,11.75
2023-03-29T15:36:48.268Z,11.50
2023-03-29T15:39:17.888Z,11.25
2023-03-29T15:41:48.913Z,11.25
2023-03-29T15:44:17.762Z,10.25
2023-03-29T15:46:45.957Z,8.00
2023-03-29T15:49:14.380Z,12.25
2023-03-29T15:51:44.143Z,2.50
2023-03-29T15:54:11.709Z,10.75
2023-03-29T15:56:50.376Z,14.50
2023-03-29T15:59:18.229Z,11.50
2023-03-29T16:01:56.770Z,11.50
2023-03-29T16:04:25.447Z,12.50
2023-03-29T16:06:55.472Z,7.75
2023-03-29T16:09:25.559Z,10.50
2023-03-29T16:11:54.534Z,8.00
2023-03-29T16:14:27.906Z,13.00
2023-03-29T16:16:57.379Z,13.00
2023-03-29T16:19:26.740Z,10.00
2023-03-29T16:21:55.870Z,10.25
2023-03-29T16:24:26.715Z,10.00
2023-03-29T16:26:57.055Z,9.50
2023-03-29T16:29:25.759Z,9.50
2023-03-29T16:31:54.153Z,8.00
2023-03-29T16:34:23.021Z,7.00
2023-03-29T16:36:50.922Z,8.50
2023-03-29T16:39:19.939Z,7.25
2023-03-29T16:41:48.544Z,8.00
2023-03-29T16:44:19.577Z,8.50
2023-03-29T16:46:49.262Z,9.75
2023-03-29T16:49:19.587Z,7.00
2023-03-29T16:51:50.375Z,11.00
2023-03-29T16:54:19.014Z,11.00
2023-03-29T16:56:47.146Z,8.00
2023-03-29T16:59:15.496Z,11.25
2023-03-29T17:01:44.500Z,6.25
2023-03-29T17:04:12.753Z,9.00
2023-03-29T17:06:41.016Z,11.50
2023-03-29T17:09:08.732Z,7.25
2023-03-29T17:11:36.198Z,7.00
2023-03-29T17:14:04.110Z,10.25
2023-03-29T17:16:31.935Z,6.00
2023-03-29T17:19:02.534Z,7.25
2023-03-29T17:21:30.880Z,10.25
2023-03-29T17:23:58.791Z,7.75
2023-03-29T17:26:27.025Z,7.00
2023-03-29T17:28:54.716Z,9.00
2023-03-29T17:31:22.880Z,8.00
2023-03-29T17:33:52.345Z,6.50
2023-03-29T17:36:24.147Z,8.25
2023-03-29T17:38:52.047Z,8.00
2023-03-29T17:41:19.571Z,10.00
2023-03-29T17:43:52.179Z,7.00
2023-03-29T17:46:23.274Z,6.00
2023-03-29T17:48:53.694Z,6.50
2023-03-29T17:51:21.277Z,7.75
2023-03-29T17:53:48.734Z,8.50
2023-03-29T17:56:16.984Z,6.75
2023-03-29T17:58:45.052Z,8.00
2023-03-29T18:01:19.713Z,6.00
2023-03-29T18:03:48.535Z,8.00
2023-03-29T18:06:20.370Z,10.00
2023-03-29T18:08:48.557Z,6.75
2023-03-29T18:11:22.422Z,9.75
2023-03-29T18:13:51.437Z,10.75
2023-03-29T18:16:22.116Z,10.75
2023-03-29T18:18:51.127Z,8.00
2023-03-29T18:21:19.046Z,10.25
2023-03-29T18:23:49.331Z,10.00
2023-03-29T18:26:17.072Z,7.00
2023-03-29T18:28:48.928Z,10.25
2023-03-29T18:31:17.231Z,9.00
2023-03-29T18:33:46.973Z,10.00
2023-03-29T18:36:15.002Z,10.00
2023-03-29T18:38:43.985Z,11.00
2023-03-29T18:41:13.770Z,10.00
2023-03-29T18:43:43.168Z,12.00
2023-03-29T18:46:10.904Z,7.00
2023-03-29T18:48:42.174Z,10.00
2023-03-29T18:51:11.797Z,10.25
2023-03-29T18:53:42.212Z,8.00
2023-03-29T18:56:10.184Z,7.50
2023-03-29T18:58:37.825Z,9.25
2023-03-29T19:01:06.693Z,10.50
2023-03-29T19:03:35.873Z,8.50
2023-03-29T19:06:04.249Z,8.00
2023-03-29T19:08:36.707Z,6.75
2023-03-29T19:11:07.585Z,0.00
2023-03-29T19:13:35.676Z,11.00
2023-03-29T19:16:04.863Z,9.00
2023-03-29T19:18:33.241Z,7.75
2023-03-29T19:21:01.116Z,7.00
2023-03-29T19:23:28.763Z,10.50
2023-03-29T19:25:58.603Z,11.50
2023-03-29T19:28:27.519Z,8.00
2023-03-29T19:30:56.678Z,7.75
2023-03-29T19:33:24.837Z,13.00
2023-03-29T19:35:52.988Z,11.50
2023-03-29T19:38:21.588Z,7.25
2023-03-29T19:40:51.656Z,10.75
2023-03-29T19:43:20.822Z,10.00
2023-03-29T19:45:50.157Z,9.50
2023-03-29T19:48:23.680Z,8.50
2023-03-29T19:50:52.087Z,10.00
2023-03-29T19:53:21.342Z,9.50
2023-03-29T19:55:49.755Z,7.00
2023-03-29T19:58:19.575Z,8.50
2023-03-29T20:00:47.179Z,11.00
2023-03-29T20:03:17.971Z,10.00
2023-03-29T20:05:46.888Z,5.50
2023-03-29T20:08:14.298Z,10.50
2023-03-29T20:10:42.643Z,9.25
2023-03-29T20:13:10.768Z,8.50
2023-03-29T20:15:38.335Z,9.00
2023-03-29T20:18:06.227Z,9.00
2023-03-29T20:20:35.825Z,7.75
2023-03-29T20:23:05.226Z,7.25
2023-03-29T20:25:35.752Z,6.00
2023-03-29T20:28:04.027Z,8.75
2023-03-29T20:30:32.056Z,9.00
2023-03-29T20:33:01.085Z,5.00
2023-03-29T20:35:28.593Z,7.25
2023-03-29T20:37:56.452Z,6.25
2023-03-29T20:40:23.928Z,7.00
2023-03-29T20:42:51.475Z,6.00
2023-03-29T20:45:20.748Z,7.00
2023-03-29T20:47:58.021Z,6.25
2023-03-29T20:50:28.907Z,5.75
2023-03-29T20:52:57.184Z,3.00
2023-03-29T20:55:24.959Z,6.75
2023-03-29T20:58:12.327Z,6.50
2023-03-29T21:00:40.524Z,6.00
2023-03-29T21:03:08.860Z,5.00
2023-03-29T21:05:37.073Z,5.25
2023-03-29T21:08:04.607Z,6.25
2023-03-29T21:10:32.180Z,5.50
2023-03-29T21:13:00.411Z,5.25
2023-03-29T21:15:30.763Z,5.50
2023-03-29T21:17:58.959Z,5.75
2023-03-29T21:20:27.749Z,6.00
2023-03-29T21:22:55.374Z,5.50
2023-03-29T21:25:22.804Z,5.75
2023-03-29T21:27:50.362Z,5.00
2023-03-29T21:30:17.861Z,4.00
2023-03-29T21:32:45.776Z,7.00
2023-03-29T21:35:13.531Z,7.25
2023-03-29T21:37:41.470Z,5.00
2023-03-29T21:40:10.800Z,7.00
2023-03-29T21:42:39.098Z,0.25
2023-03-29T21:45:07.150Z,2.25
2023-03-29T21:47:35.190Z,4.00
2023-03-29T21:50:03.080Z,5.00
2023-03-29T21:52:30.916Z,5.00
2023-03-29T21:54:59.198Z,5.50
2023-03-29T21:57:26.798Z,5.00
2023-03-29T21:59:56.029Z,6.00
2023-03-29T22:02:23.550Z,3.50
2023-03-29T22:04:51.339Z,6.00
2023-03-29T22:07:22.833Z,5.50
2023-03-29T22:09:50.450Z,6.75
2023-03-29T22:12:19.440Z,6.25
2023-03-29T22:14:46.822Z,2.00
2023-03-29T22:17:16.124Z,4.75
2023-03-29T22:19:43.571Z,3.00
2023-03-29T22:22:14.337Z,4.00
2023-03-29T22:24:42.362Z,5.25
2023-03-29T22:27:15.732Z,6.25
2023-03-29T22:29:43.435Z,7.00
2023-03-29T22:32:11.008Z,6.00
2023-03-29T22:34:39.500Z,7.75
2023-03-29T22:37:06.962Z,5.25
2023-03-29T22:39:37.682Z,4.50
2023-03-29T22:42:05.117Z,3.50
2023-03-29T22:44:33.986Z,5.00
2023-03-29T22:47:02.125Z,5.25
2023-03-29T22:49:29.818Z,5.50
2023-03-29T22:51:57.339Z,6.00
2023-03-29T22:54:24.887Z,3.50
2023-03-29T22:56:52.372Z,5.50
2023-03-29T22:59:21.426Z,5.75
2023-03-29T23:01:50.078Z,6.00
2023-03-29T23:04:18.209Z,5.00
2023-03-29T23:06:46.367Z,6.75
2023-03-29T23:09:15.994Z,5.75
2023-03-29T23:11:44.494Z,4.50
2023-03-29T23:14:12.150Z,5.00
2023-03-29T23:16:39.727Z,4.00
2023-03-29T23:19:07.895Z,3.00
2023-03-29T23:21:37.074Z,3.00
2023-03-29T23:24:19.791Z,4.00
2023-03-29T23:26:49.107Z,6.00
2023-03-29T23:29:16.596Z,3.00
2023-03-29T23:31:44.496Z,3.50
2023-03-29T23:34:13.532Z,5.00
2023-03-29T23:36:41.086Z,3.00
2023-03-29T23:39:10.036Z,3.00
2023-03-29T23:41:40.263Z,5.00
2023-03-29T23:44:10.395Z,5.25
2023-03-29T23:46:37.850Z,2.00
2023-03-29T23:49:05.432Z,5.00
2023-03-29T23:51:35.185Z,7.00
2023-03-29T23:54:03.003Z,4.50
2023-03-29T23:56:38.806Z,4.00
2023-03-29T23:59:06.456Z,4.50
